createdAt,value
2019-02-09T01:25:15.848Z,5.08
2019-02-09T01:30:22.884Z,5.72
2019-02-09T01:35:33.741Z,3.92
2019-02-09T01:40:42.993Z,5.40
2019-02-09T01:46:05.280Z,4.87
2019-02-09T01:51:57.202Z,3.12
2019-02-09T01:57:10.244Z,4.55
2019-02-09T02:02:44.884Z,2.47
2019-02-09T02:07:46.393Z,4.05
2019-02-09T02:13:09.677Z,4.62
2019-02-09T02:18:15.958Z,5.17
2019-02-09T02:23:29.373Z,4.92
2019-02-09T02:28:37.913Z,5.75
2019-02-09T02:33:43.467Z,6.55
2019-02-09T02:38:48.302Z,6.00
2019-02-09T02:43:55.761Z,4.27
2019-02-09T03:01:16.575Z,7.60
2019-02-09T03:06:18.512Z,4.12
2019-02-09T03:11:23.765Z,5.33
2019-02-09T03:16:28.538Z,4.80
2019-02-09T03:21:33.075Z,4.53
2019-02-09T03:32:41.671Z,4.47
2019-02-09T03:37:51.226Z,5.33
2019-02-09T03:43:00.520Z,4.03
2019-02-09T03:48:09.515Z,6.37
2019-02-09T03:53:17.383Z,3.98
2019-02-09T03:58:24.562Z,4.33
2019-02-09T04:03:44.949Z,2.62
2019-02-09T04:08:52.457Z,5.60
2019-02-09T04:13:57.843Z,2.37
2019-02-09T04:19:09.071Z,3.15
2019-02-09T04:24:51.071Z,5.83
2019-02-09T04:30:12.702Z,4.45
2019-02-09T04:35:28.267Z,3.17
2019-02-09T04:40:36.011Z,3.42
2019-02-09T04:45:45.474Z,2.73
2019-02-09T04:51:44.360Z,4.17
2019-02-09T04:56:52.111Z,4.13
2019-02-09T05:01:59.777Z,4.85
2019-02-09T05:07:04.458Z,3.42
2019-02-09T05:12:10.157Z,5.23
2019-02-09T05:17:19.326Z,5.00
2019-02-09T05:22:43.227Z,5.70
2019-02-09T05:34:06.304Z,4.22
2019-02-09T05:39:35.291Z,5.28
2019-02-09T05:45:09.522Z,4.33
2019-02-09T05:56:20.677Z,5.05
2019-02-09T06:01:32.249Z,4.47
2019-02-09T06:06:37.705Z,4.58
2019-02-09T06:11:45.201Z,5.40
2019-02-09T06:17:03.664Z,5.80
2019-02-09T06:22:14.732Z,5.47
2019-02-09T06:27:31.356Z,3.60
2019-02-09T06:38:22.182Z,6.55
2019-02-09T06:43:37.049Z,3.90
2019-02-09T06:48:49.393Z,3.35
2019-02-09T06:54:00.167Z,3.80
2019-02-09T06:59:08.940Z,3.40
2019-02-09T07:04:15.790Z,2.70
2019-02-09T07:09:27.864Z,4.60
2019-02-09T07:14:51.409Z,4.10
2019-02-09T07:20:19.050Z,4.30
2019-02-09T07:26:03.707Z,4.40
2019-02-09T07:31:08.993Z,4.70
2019-02-09T07:36:34.523Z,3.70
2019-02-09T07:41:42.298Z,4.10
2019-02-09T07:47:08.827Z,2.33
2019-02-09T08:31:58.146Z,3.60
2019-02-09T08:37:15.513Z,3.95
2019-02-09T08:42:40.496Z,4.90
2019-02-09T08:47:52.005Z,6.35
2019-02-09T08:53:08.769Z,3.80
2019-02-09T08:58:28.499Z,5.80
2019-02-09T09:03:38.324Z,6.10
2019-02-09T09:14:26.338Z,7.58
2019-02-09T09:25:43.048Z,7.28
2019-02-09T09:30:51.473Z,5.83
2019-02-09T09:36:00.033Z,5.78
2019-02-09T09:41:06.995Z,7.20
2019-02-09T09:46:53.098Z,9.98
2019-02-09T09:57:46.393Z,7.05
2019-02-09T10:03:09.828Z,5.35
2019-02-09T10:08:14.353Z,7.87
2019-02-09T10:13:18.655Z,7.60
2019-02-09T10:18:22.914Z,10.10
2019-02-09T10:23:29.209Z,9.17
2019-02-09T10:28:40.110Z,6.65
2019-02-09T10:33:48.982Z,6.87
2019-02-09T10:38:56.471Z,6.80
2019-02-09T10:44:12.199Z,6.95
2019-02-09T10:49:19.898Z,7.30
2019-02-09T10:54:27.011Z,7.43
2019-02-09T10:59:39.891Z,5.50
2019-02-09T11:04:44.842Z,6.93
2019-02-09T11:10:01.881Z,5.20
2019-02-09T11:15:23.344Z,5.57
2019-02-09T11:20:33.675Z,6.13
2019-02-09T11:25:49.766Z,5.87
2019-02-09T11:30:54.062Z,5.10
2019-02-09T11:36:00.030Z,4.50
2019-02-09T11:41:30.496Z,5.80
2019-02-09T11:46:34.710Z,7.15
2019-02-09T11:57:05.305Z,9.00
2019-02-09T12:02:07.716Z,6.30
2019-02-09T12:07:20.022Z,4.45
2019-02-09T12:13:06.588Z,4.00
2019-02-09T12:18:42.951Z,5.37
2019-02-09T12:23:52.248Z,2.90
2019-02-09T12:29:12.347Z,2.90
2019-02-09T12:34:17.749Z,3.40
2019-02-09T12:45:11.188Z,4.30
2019-02-09T12:57:36.684Z,4.80
2019-02-09T13:09:39.124Z,6.35
2019-02-09T13:14:54.450Z,4.30
2019-02-09T13:20:46.017Z,5.53
2019-02-09T13:25:59.148Z,5.60
2019-02-09T13:31:03.752Z,6.80
2019-02-09T13:36:15.308Z,6.70
2019-02-09T13:42:01.446Z,5.27
2019-02-09T13:47:06.825Z,6.85
2019-02-09T13:53:01.206Z,5.60
2019-02-09T13:58:17.748Z,10.77
2019-02-09T20:03:03.792Z,7.42
2019-02-09T20:08:09.643Z,11.83
2019-02-09T20:13:20.228Z,8.88
2019-02-09T20:18:29.629Z,14.90
2019-02-09T20:23:33.396Z,16.47
2019-02-09T20:28:38.533Z,13.72
2019-02-09T20:33:49.517Z,14.50
2019-02-09T20:39:04.341Z,11.43
2019-02-09T20:44:04.405Z,10.98
2019-02-09T20:49:11.364Z,7.87
2019-02-09T21:00:07.014Z,9.78
2019-02-09T21:05:18.014Z,15.45
2019-02-09T21:10:31.536Z,13.40
2019-02-09T21:15:37.640Z,11.35
2019-02-09T21:20:42.463Z,11.55
2019-02-09T21:25:47.720Z,12.93
2019-02-09T21:30:56.971Z,14.60
2019-02-09T21:36:02.858Z,12.03
2019-02-09T21:41:07.963Z,11.08
2019-02-09T21:46:12.890Z,12.90
2019-02-09T21:51:18.016Z,11.83
2019-02-09T21:56:28.032Z,9.93
2019-02-09T22:01:40.907Z,12.18
2019-02-09T22:06:49.589Z,10.53
2019-02-09T22:11:57.809Z,12.80
2019-02-09T22:17:05.860Z,14.07
2019-02-09T22:22:24.558Z,12.78
2019-02-09T22:27:30.766Z,11.93
2019-02-09T22:32:37.129Z,9.90
2019-02-09T22:37:41.752Z,10.78
2019-02-09T22:42:46.626Z,11.07
2019-02-09T22:47:54.093Z,11.75
2019-02-09T22:53:00.650Z,8.13
2019-02-09T22:58:06.661Z,18.90
2019-02-09T23:03:13.490Z,10.55
2019-02-09T23:08:23.468Z,11.40
2019-02-09T23:13:28.073Z,11.50
2019-02-09T23:18:32.983Z,12.28
2019-02-09T23:23:59.328Z,13.57
2019-02-09T23:29:29.995Z,8.73
2019-02-09T23:34:42.616Z,9.00
2019-02-09T23:39:54.605Z,7.45
2019-02-09T23:45:02.606Z,11.25
2019-02-09T23:50:08.849Z,11.40
2019-02-09T23:55:17.203Z,11.20
